sensor_id;sensor_type;location;lat;lon;timestamp;P1;durP1;ratioP1;P2;durP2;ratioP2
2049;SDS011;8478;49.208;8.806;2024-03-29T00:00:42;3.43;;;2.30;;
2049;SDS011;8478;49.208;8.806;2024-03-29T00:03:09;3.13;;;2.53;;
2049;SDS011;8478;49.208;8.806;2024-03-29T00:05:35;4.33;;;2.60;;
2049;SDS011;8478;49.208;8.806;2024-03-29T00:08:01;5.20;;;3.00;;
2049;SDS011;8478;49.208;8.806;2024-03-29T00:10:28;3.13;;;2.83;;
2049;SDS011;8478;49.208;8.806;2024-03-29T00:12:54;5.40;;;3.10;;
2049;SDS011;8478;49.208;8.806;2024-03-29T00:15:19;3.40;;;2.63;;
2049;SDS011;8478;49.208;8.806;2024-03-29T00:17:45;2.93;;;2.33;;
2049;SDS011;8478;49.208;8.806;2024-03-29T00:20:11;3.83;;;2.37;;
2049;SDS011;8478;49.208;8.806;2024-03-29T00:22:37;3.73;;;2.33;;
2049;SDS011;8478;49.208;8.806;2024-03-29T00:25:03;3.80;;;2.83;;
2049;SDS011;8478;49.208;8.806;2024-03-29T00:27:28;2.70;;;2.50;;
2049;SDS011;8478;49.208;8.806;2024-03-29T00:29:55;2.93;;;2.63;;
2049;SDS011;8478;49.208;8.806;2024-03-29T00:32:21;3.83;;;3.40;;
2049;SDS011;8478;49.208;8.806;2024-03-29T00:34:51;4.00;;;2.93;;
2049;SDS011;8478;49.208;8.806;2024-03-29T00:37:17;3.20;;;2.47;;
2049;SDS011;8478;49.208;8.806;2024-03-29T00:39:43;3.00;;;2.73;;
2049;SDS011;8478;49.208;8.806;2024-03-29T00:42:09;3.87;;;3.53;;
2049;SDS011;8478;49.208;8.806;2024-03-29T00:44:37;4.60;;;4.20;;
2049;SDS011;8478;49.208;8.806;2024-03-29T00:47:06;4.80;;;3.13;;
2049;SDS011;8478;49.208;8.806;2024-03-29T00:49:32;4.80;;;3.50;;
2049;SDS011;8478;49.208;8.806;2024-03-29T00:51:58;4.33;;;3.77;;
2049;SDS011;8478;49.208;8.806;2024-03-29T00:54:24;5.53;;;4.40;;
2049;SDS011;8478;49.208;8.806;2024-03-29T00:56:50;7.03;;;5.90;;
2049;SDS011;8478;49.208;8.806;2024-03-29T00:59:16;7.83;;;6.00;;
2049;SDS011;8478;49.208;8.806;2024-03-29T01:01:42;6.80;;;5.80;;
2049;SDS011;8478;49.208;8.806;2024-03-29T01:04:07;7.67;;;6.30;;
2049;SDS011;8478;49.208;8.806;2024-03-29T01:06:33;7.00;;;6.30;;
2049;SDS011;8478;49.208;8.806;2024-03-29T01:08:59;7.67;;;5.33;;
2049;SDS011;8478;49.208;8.806;2024-03-29T01:11:26;4.90;;;4.50;;
2049;SDS011;8478;49.208;8.806;2024-03-29T01:13:52;5.80;;;5.03;;
2049;SDS011;8478;49.208;8.806;2024-03-29T01:16:18;5.20;;;4.70;;
2049;SDS011;8478;49.208;8.806;2024-03-29T01:18:44;5.30;;;4.80;;
2049;SDS011;8478;49.208;8.806;2024-03-29T01:21:11;4.23;;;3.90;;
2049;SDS011;8478;49.208;8.806;2024-03-29T01:23:37;4.53;;;4.23;;
2049;SDS011;8478;49.208;8.806;2024-03-29T01:26:03;5.13;;;4.03;;
2049;SDS011;8478;49.208;8.806;2024-03-29T01:28:29;5.40;;;4.67;;
2049;SDS011;8478;49.208;8.806;2024-03-29T01:30:55;3.80;;;3.40;;
2049;SDS011;8478;49.208;8.806;2024-03-29T01:33:23;5.13;;;4.27;;
2049;SDS011;8478;49.208;8.806;2024-03-29T01:35:49;4.17;;;3.77;;
2049;SDS011;8478;49.208;8.806;2024-03-29T01:38:15;4.47;;;3.60;;
2049;SDS011;8478;49.208;8.806;2024-03-29T01:40:40;4.43;;;3.90;;
2049;SDS011;8478;49.208;8.806;2024-03-29T01:43:06;4.53;;;3.67;;
2049;SDS011;8478;49.208;8.806;2024-03-29T01:45:34;4.00;;;3.70;;
2049;SDS011;8478;49.208;8.806;2024-03-29T01:48:03;3.00;;;2.80;;
2049;SDS011;8478;49.208;8.806;2024-03-29T01:50:30;2.90;;;2.70;;
2049;SDS011;8478;49.208;8.806;2024-03-29T01:52:56;3.90;;;3.10;;
2049;SDS011;8478;49.208;8.806;2024-03-29T01:55:22;2.73;;;2.53;;
2049;SDS011;8478;49.208;8.806;2024-03-29T01:57:48;3.80;;;3.27;;
2049;SDS011;8478;49.208;8.806;2024-03-29T02:00:15;2.80;;;2.60;;
2049;SDS011;8478;49.208;8.806;2024-03-29T02:02:41;2.97;;;2.77;;
2049;SDS011;8478;49.208;8.806;2024-03-29T02:05:07;2.77;;;2.57;;
2049;SDS011;8478;49.208;8.806;2024-03-29T02:07:32;2.87;;;2.67;;
2049;SDS011;8478;49.208;8.806;2024-03-29T02:09:59;4.80;;;2.77;;
2049;SDS011;8478;49.208;8.806;2024-03-29T02:12:25;2.83;;;2.63;;
2049;SDS011;8478;49.208;8.806;2024-03-29T02:14:50;2.40;;;2.20;;
2049;SDS011;8478;49.208;8.806;2024-03-29T02:17:16;2.80;;;2.30;;
2049;SDS011;8478;49.208;8.806;2024-03-29T02:19:42;2.67;;;2.40;;
2049;SDS011;8478;49.208;8.806;2024-03-29T02:22:07;2.50;;;2.30;;
2049;SDS011;8478;49.208;8.806;2024-03-29T02:24:40;2.77;;;2.27;;
2049;SDS011;8478;49.208;8.806;2024-03-29T02:27:05;2.70;;;2.50;;
2049;SDS011;8478;49.208;8.806;2024-03-29T02:29:31;2.43;;;2.23;;
2049;SDS011;8478;49.208;8.806;2024-03-29T02:31:56;2.20;;;2.00;;
2049;SDS011;8478;49.208;8.806;2024-03-29T02:34:22;2.20;;;2.00;;
2049;SDS011;8478;49.208;8.806;2024-03-29T02:36:48;3.67;;;2.30;;
2049;SDS011;8478;49.208;8.806;2024-03-29T02:39:14;2.40;;;2.20;;
2049;SDS011;8478;49.208;8.806;2024-03-29T02:41:39;2.13;;;1.93;;
2049;SDS011;8478;49.208;8.806;2024-03-29T02:44:05;2.33;;;2.13;;
2049;SDS011;8478;49.208;8.806;2024-03-29T02:46:31;2.27;;;2.07;;
2049;SDS011;8478;49.208;8.806;2024-03-29T02:48:56;2.33;;;2.13;;
2049;SDS011;8478;49.208;8.806;2024-03-29T02:51:22;2.63;;;2.00;;
2049;SDS011;8478;49.208;8.806;2024-03-29T02:53:47;2.43;;;2.23;;
2049;SDS011;8478;49.208;8.806;2024-03-29T02:56:13;2.00;;;1.90;;
2049;SDS011;8478;49.208;8.806;2024-03-29T02:58:43;3.10;;;2.20;;
2049;SDS011;8478;49.208;8.806;2024-03-29T03:01:09;2.30;;;2.10;;
2049;SDS011;8478;49.208;8.806;2024-03-29T03:03:35;2.10;;;2.00;;
2049;SDS011;8478;49.208;8.806;2024-03-29T03:06:01;2.00;;;1.90;;
2049;SDS011;8478;49.208;8.806;2024-03-29T03:08:30;1.90;;;1.70;;
2049;SDS011;8478;49.208;8.806;2024-03-29T03:11:14;2.37;;;2.17;;
2049;SDS011;8478;49.208;8.806;2024-03-29T03:13:40;2.40;;;2.20;;
2049;SDS011;8478;49.208;8.806;2024-03-29T03:16:06;2.13;;;2.03;;
2049;SDS011;8478;49.208;8.806;2024-03-29T03:18:31;2.20;;;2.00;;
2049;SDS011;8478;49.208;8.806;2024-03-29T03:20:57;2.20;;;2.00;;
2049;SDS011;8478;49.208;8.806;2024-03-29T03:23:23;2.27;;;2.07;;
2049;SDS011;8478;49.208;8.806;2024-03-29T03:25:56;2.43;;;2.07;;
2049;SDS011;8478;49.208;8.806;2024-03-29T03:28:26;2.07;;;1.97;;
2049;SDS011;8478;49.208;8.806;2024-03-29T03:30:52;3.00;;;2.33;;
2049;SDS011;8478;49.208;8.806;2024-03-29T03:33:19;2.30;;;2.10;;
2049;SDS011;8478;49.208;8.806;2024-03-29T03:35:45;2.60;;;2.40;;
2049;SDS011;8478;49.208;8.806;2024-03-29T03:38:11;2.20;;;2.00;;
2049;SDS011;8478;49.208;8.806;2024-03-29T03:40:37;2.53;;;1.90;;
2049;SDS011;8478;49.208;8.806;2024-03-29T03:43:03;2.60;;;2.37;;
2049;SDS011;8478;49.208;8.806;2024-03-29T03:45:36;2.07;;;1.97;;
2049;SDS011;8478;49.208;8.806;2024-03-29T03:48:03;1.90;;;1.80;;
2049;SDS011;8478;49.208;8.806;2024-03-29T03:50:29;1.83;;;1.73;;
2049;SDS011;8478;49.208;8.806;2024-03-29T03:52:55;2.20;;;2.10;;
2049;SDS011;8478;49.208;8.806;2024-03-29T03:55:21;2.30;;;2.10;;
2049;SDS011;8478;49.208;8.806;2024-03-29T03:57:47;2.23;;;2.03;;
2049;SDS011;8478;49.208;8.806;2024-03-29T04:00:12;2.20;;;2.00;;
2049;SDS011;8478;49.208;8.806;2024-03-29T04:02:38;2.00;;;1.90;;
2049;SDS011;8478;49.208;8.806;2024-03-29T04:05:04;2.13;;;2.03;;
2049;SDS011;8478;49.208;8.806;2024-03-29T04:07:31;2.00;;;1.90;;
2049;SDS011;8478;49.208;8.806;2024-03-29T04:09:57;1.90;;;1.80;;
2049;SDS011;8478;49.208;8.806;2024-03-29T04:12:22;2.27;;;1.93;;
2049;SDS011;8478;49.208;8.806;2024-03-29T04:14:48;2.77;;;2.57;;
2049;SDS011;8478;49.208;8.806;2024-03-29T04:17:14;1.97;;;1.87;;
2049;SDS011;8478;49.208;8.806;2024-03-29T04:19:39;2.10;;;2.00;;
2049;SDS011;8478;49.208;8.806;2024-03-29T04:22:05;1.90;;;1.80;;
2049;SDS011;8478;49.208;8.806;2024-03-29T04:24:31;2.30;;;2.00;;
2049;SDS011;8478;49.208;8.806;2024-03-29T04:26:56;2.40;;;2.20;;
2049;SDS011;8478;49.208;8.806;2024-03-29T04:29:22;2.03;;;1.80;;
2049;SDS011;8478;49.208;8.806;2024-03-29T04:31:48;2.00;;;1.80;;
2049;SDS011;8478;49.208;8.806;2024-03-29T04:34:13;2.20;;;2.00;;
2049;SDS011;8478;49.208;8.806;2024-03-29T04:36:39;2.40;;;2.03;;
2049;SDS011;8478;49.208;8.806;2024-03-29T04:39:04;2.63;;;2.43;;
2049;SDS011;8478;49.208;8.806;2024-03-29T04:41:30;2.20;;;2.00;;
2049;SDS011;8478;49.208;8.806;2024-03-29T04:43:59;1.60;;;1.50;;
2049;SDS011;8478;49.208;8.806;2024-03-29T04:46:27;2.40;;;2.00;;
2049;SDS011;8478;49.208;8.806;2024-03-29T04:48:54;2.63;;;2.40;;
2049;SDS011;8478;49.208;8.806;2024-03-29T04:51:20;3.23;;;2.20;;
2049;SDS011;8478;49.208;8.806;2024-03-29T04:53:46;2.37;;;2.17;;
2049;SDS011;8478;49.208;8.806;2024-03-29T04:56:11;1.80;;;1.70;;
2049;SDS011;8478;49.208;8.806;2024-03-29T04:58:37;1.97;;;1.77;;
2049;SDS011;8478;49.208;8.806;2024-03-29T05:01:03;2.43;;;1.97;;
2049;SDS011;8478;49.208;8.806;2024-03-29T05:03:29;2.10;;;1.90;;
2049;SDS011;8478;49.208;8.806;2024-03-29T05:05:56;2.23;;;2.03;;
2049;SDS011;8478;49.208;8.806;2024-03-29T05:08:22;2.30;;;1.90;;
2049;SDS011;8478;49.208;8.806;2024-03-29T05:10:50;2.70;;;1.90;;
2049;SDS011;8478;49.208;8.806;2024-03-29T05:13:17;1.97;;;1.87;;
2049;SDS011;8478;49.208;8.806;2024-03-29T05:15:49;1.83;;;1.73;;
2049;SDS011;8478;49.208;8.806;2024-03-29T05:18:15;2.30;;;2.10;;
2049;SDS011;8478;49.208;8.806;2024-03-29T05:20:41;2.30;;;2.10;;
2049;SDS011;8478;49.208;8.806;2024-03-29T05:23:12;2.03;;;1.83;;
2049;SDS011;8478;49.208;8.806;2024-03-29T05:25:39;2.10;;;1.90;;
2049;SDS011;8478;49.208;8.806;2024-03-29T05:28:05;2.10;;;2.00;;
2049;SDS011;8478;49.208;8.806;2024-03-29T05:30:32;2.00;;;1.90;;
2049;SDS011;8478;49.208;8.806;2024-03-29T05:32:58;1.60;;;1.50;;
2049;SDS011;8478;49.208;8.806;2024-03-29T05:35:24;2.00;;;1.80;;
2049;SDS011;8478;49.208;8.806;2024-03-29T05:37:49;2.10;;;2.00;;
2049;SDS011;8478;49.208;8.806;2024-03-29T05:40:18;2.10;;;1.90;;
2049;SDS011;8478;49.208;8.806;2024-03-29T05:42:44;2.10;;;1.90;;
2049;SDS011;8478;49.208;8.806;2024-03-29T05:45:21;1.90;;;1.80;;
2049;SDS011;8478;49.208;8.806;2024-03-29T05:47:49;1.80;;;1.70;;
2049;SDS011;8478;49.208;8.806;2024-03-29T05:50:15;1.93;;;1.83;;
2049;SDS011;8478;49.208;8.806;2024-03-29T05:52:40;2.30;;;2.00;;
2049;SDS011;8478;49.208;8.806;2024-03-29T05:55:06;2.37;;;2.00;;
2049;SDS011;8478;49.208;8.806;2024-03-29T05:57:34;2.17;;;2.00;;
2049;SDS011;8478;49.208;8.806;2024-03-29T06:00:03;2.70;;;2.13;;
2049;SDS011;8478;49.208;8.806;2024-03-29T06:02:30;2.27;;;2.00;;
2049;SDS011;8478;49.208;8.806;2024-03-29T06:04:56;2.00;;;1.73;;
2049;SDS011;8478;49.208;8.806;2024-03-29T06:07:21;2.03;;;1.83;;
2049;SDS011;8478;49.208;8.806;2024-03-29T06:09:47;2.00;;;1.90;;
2049;SDS011;8478;49.208;8.806;2024-03-29T06:12:12;2.53;;;2.33;;
2049;SDS011;8478;49.208;8.806;2024-03-29T06:14:38;1.70;;;1.60;;
2049;SDS011;8478;49.208;8.806;2024-03-29T06:17:22;1.80;;;1.70;;
2049;SDS011;8478;49.208;8.806;2024-03-29T06:19:48;2.13;;;1.90;;
2049;SDS011;8478;49.208;8.806;2024-03-29T06:22:20;2.20;;;2.10;;
2049;SDS011;8478;49.208;8.806;2024-03-29T06:24:46;1.77;;;1.67;;
2049;SDS011;8478;49.208;8.806;2024-03-29T06:27:13;3.47;;;2.00;;
2049;SDS011;8478;49.208;8.806;2024-03-29T06:29:43;1.80;;;1.70;;
2049;SDS011;8478;49.208;8.806;2024-03-29T06:32:09;2.00;;;1.90;;
2049;SDS011;8478;49.208;8.806;2024-03-29T06:34:35;2.43;;;1.90;;
2049;SDS011;8478;49.208;8.806;2024-03-29T06:37:01;2.20;;;2.10;;
2049;SDS011;8478;49.208;8.806;2024-03-29T06:39:27;2.50;;;2.30;;
2049;SDS011;8478;49.208;8.806;2024-03-29T06:41:52;2.77;;;2.57;;
2049;SDS011;8478;49.208;8.806;2024-03-29T06:44:18;2.60;;;2.40;;
2049;SDS011;8478;49.208;8.806;2024-03-29T06:46:43;3.67;;;3.37;;
2049;SDS011;8478;49.208;8.806;2024-03-29T06:49:10;3.90;;;3.60;;
2049;SDS011;8478;49.208;8.806;2024-03-29T06:51:36;3.30;;;3.00;;
2049;SDS011;8478;49.208;8.806;2024-03-29T06:54:01;2.83;;;2.63;;
2049;SDS011;8478;49.208;8.806;2024-03-29T06:56:27;3.60;;;2.93;;
2049;SDS011;8478;49.208;8.806;2024-03-29T06:58:54;3.20;;;3.00;;
2049;SDS011;8478;49.208;8.806;2024-03-29T07:01:20;2.93;;;2.73;;
2049;SDS011;8478;49.208;8.806;2024-03-29T07:03:45;2.53;;;2.33;;
2049;SDS011;8478;49.208;8.806;2024-03-29T07:06:11;2.70;;;2.50;;
2049;SDS011;8478;49.208;8.806;2024-03-29T07:08:36;2.50;;;2.30;;
2049;SDS011;8478;49.208;8.806;2024-03-29T07:11:02;2.40;;;2.20;;
2049;SDS011;8478;49.208;8.806;2024-03-29T07:13:28;2.40;;;2.20;;
2049;SDS011;8478;49.208;8.806;2024-03-29T07:15:56;2.57;;;2.37;;
2049;SDS011;8478;49.208;8.806;2024-03-29T07:18:25;2.10;;;2.00;;
2049;SDS011;8478;49.208;8.806;2024-03-29T07:20:51;2.37;;;2.20;;
2049;SDS011;8478;49.208;8.806;2024-03-29T07:23:17;2.57;;;2.37;;
2049;SDS011;8478;49.208;8.806;2024-03-29T07:25:59;2.97;;;2.30;;
2049;SDS011;8478;49.208;8.806;2024-03-29T07:28:26;2.63;;;2.17;;
2049;SDS011;8478;49.208;8.806;2024-03-29T07:30:52;2.23;;;1.93;;
2049;SDS011;8478;49.208;8.806;2024-03-29T07:33:22;2.43;;;2.23;;
2049;SDS011;8478;49.208;8.806;2024-03-29T07:35:51;2.17;;;1.97;;
2049;SDS011;8478;49.208;8.806;2024-03-29T07:38:18;2.03;;;1.93;;
2049;SDS011;8478;49.208;8.806;2024-03-29T07:40:45;2.30;;;2.10;;
2049;SDS011;8478;49.208;8.806;2024-03-29T07:43:15;1.97;;;1.87;;
2049;SDS011;8478;49.208;8.806;2024-03-29T07:45:41;2.20;;;2.00;;
2049;SDS011;8478;49.208;8.806;2024-03-29T07:48:10;2.37;;;2.17;;
2049;SDS011;8478;49.208;8.806;2024-03-29T07:50:38;2.33;;;2.10;;
2049;SDS011;8478;49.208;8.806;2024-03-29T07:53:04;2.80;;;2.23;;
2049;SDS011;8478;49.208;8.806;2024-03-29T07:55:29;1.90;;;1.80;;
2049;SDS011;8478;49.208;8.806;2024-03-29T07:57:55;4.30;;;2.50;;
2049;SDS011;8478;49.208;8.806;2024-03-29T08:00:21;2.20;;;2.00;;
2049;SDS011;8478;49.208;8.806;2024-03-29T08:02:47;2.53;;;2.07;;
2049;SDS011;8478;49.208;8.806;2024-03-29T08:05:13;2.53;;;2.33;;
2049;SDS011;8478;49.208;8.806;2024-03-29T08:07:39;4.37;;;2.70;;
2049;SDS011;8478;49.208;8.806;2024-03-29T08:10:04;2.20;;;2.00;;
2049;SDS011;8478;49.208;8.806;2024-03-29T08:12:31;2.43;;;2.20;;
2049;SDS011;8478;49.208;8.806;2024-03-29T08:14:58;2.60;;;2.20;;
2049;SDS011;8478;49.208;8.806;2024-03-29T08:17:23;3.43;;;2.20;;
2049;SDS011;8478;49.208;8.806;2024-03-29T08:19:50;2.80;;;2.27;;
2049;SDS011;8478;49.208;8.806;2024-03-29T08:22:15;2.83;;;2.17;;
2049;SDS011;8478;49.208;8.806;2024-03-29T08:24:41;2.70;;;2.30;;
2049;SDS011;8478;49.208;8.806;2024-03-29T08:27:07;2.43;;;2.20;;
2049;SDS011;8478;49.208;8.806;2024-03-29T08:29:34;3.50;;;2.50;;
2049;SDS011;8478;49.208;8.806;2024-03-29T08:31:59;3.60;;;2.37;;
2049;SDS011;8478;49.208;8.806;2024-03-29T08:34:25;2.70;;;2.50;;
2049;SDS011;8478;49.208;8.806;2024-03-29T08:36:53;3.13;;;2.87;;
2049;SDS011;8478;49.208;8.806;2024-03-29T08:39:19;2.50;;;2.27;;
2049;SDS011;8478;49.208;8.806;2024-03-29T08:41:45;3.93;;;2.83;;
2049;SDS011;8478;49.208;8.806;2024-03-29T08:44:11;3.47;;;2.80;;
2049;SDS011;8478;49.208;8.806;2024-03-29T08:46:36;2.30;;;2.10;;
2049;SDS011;8478;49.208;8.806;2024-03-29T08:49:02;3.00;;;2.60;;
2049;SDS011;8478;49.208;8.806;2024-03-29T08:51:28;3.00;;;2.40;;
2049;SDS011;8478;49.208;8.806;2024-03-29T08:53:54;2.47;;;2.23;;
2049;SDS011;8478;49.208;8.806;2024-03-29T08:56:20;2.90;;;2.20;;
2049;SDS011;8478;49.208;8.806;2024-03-29T08:58:46;3.50;;;3.30;;
2049;SDS011;8478;49.208;8.806;2024-03-29T09:01:12;3.47;;;3.13;;
2049;SDS011;8478;49.208;8.806;2024-03-29T09:03:39;4.53;;;2.80;;
2049;SDS011;8478;49.208;8.806;2024-03-29T09:06:05;2.50;;;2.30;;
2049;SDS011;8478;49.208;8.806;2024-03-29T09:08:30;3.10;;;2.90;;
2049;SDS011;8478;49.208;8.806;2024-03-29T09:10:56;2.40;;;2.20;;
2049;SDS011;8478;49.208;8.806;2024-03-29T09:13:23;2.63;;;2.43;;
2049;SDS011;8478;49.208;8.806;2024-03-29T09:15:48;3.30;;;2.90;;
2049;SDS011;8478;49.208;8.806;2024-03-29T09:18:14;2.30;;;2.10;;
2049;SDS011;8478;49.208;8.806;2024-03-29T09:21:00;2.63;;;2.17;;
2049;SDS011;8478;49.208;8.806;2024-03-29T09:23:26;2.30;;;2.10;;
2049;SDS011;8478;49.208;8.806;2024-03-29T09:25:58;2.90;;;2.30;;
2049;SDS011;8478;49.208;8.806;2024-03-29T09:28:24;2.43;;;2.23;;
2049;SDS011;8478;49.208;8.806;2024-03-29T09:30:50;2.80;;;2.03;;
2049;SDS011;8478;49.208;8.806;2024-03-29T09:33:22;2.80;;;2.60;;
2049;SDS011;8478;49.208;8.806;2024-03-29T09:35:47;2.83;;;2.50;;
2049;SDS011;8478;49.208;8.806;2024-03-29T09:38:13;2.50;;;2.30;;
2049;SDS011;8478;49.208;8.806;2024-03-29T09:40:38;2.47;;;2.27;;
2049;SDS011;8478;49.208;8.806;2024-03-29T09:43:04;2.40;;;2.20;;
2049;SDS011;8478;49.208;8.806;2024-03-29T09:45:33;2.10;;;2.00;;
2049;SDS011;8478;49.208;8.806;2024-03-29T09:48:03;2.40;;;2.20;;
2049;SDS011;8478;49.208;8.806;2024-03-29T09:50:34;2.73;;;2.43;;
2049;SDS011;8478;49.208;8.806;2024-03-29T09:53:01;2.90;;;2.70;;
2049;SDS011;8478;49.208;8.806;2024-03-29T09:55:29;2.70;;;2.40;;
2049;SDS011;8478;49.208;8.806;2024-03-29T09:57:55;2.70;;;2.50;;
2049;SDS011;8478;49.208;8.806;2024-03-29T10:00:21;2.97;;;2.67;;
2049;SDS011;8478;49.208;8.806;2024-03-29T10:02:47;2.60;;;2.40;;
2049;SDS011;8478;49.208;8.806;2024-03-29T10:05:15;2.53;;;2.33;;
2049;SDS011;8478;49.208;8.806;2024-03-29T10:07:41;2.50;;;2.30;;
2049;SDS011;8478;49.208;8.806;2024-03-29T10:10:08;2.50;;;2.30;;
2049;SDS011;8478;49.208;8.806;2024-03-29T10:12:36;3.03;;;2.67;;
2049;SDS011;8478;49.208;8.806;2024-03-29T10:15:02;2.60;;;2.40;;
2049;SDS011;8478;49.208;8.806;2024-03-29T10:17:39;2.77;;;2.57;;
2049;SDS011;8478;49.208;8.806;2024-03-29T10:20:10;2.43;;;2.33;;
2049;SDS011;8478;49.208;8.806;2024-03-29T10:22:45;2.50;;;2.30;;
2049;SDS011;8478;49.208;8.806;2024-03-29T10:25:15;2.67;;;2.43;;
2049;SDS011;8478;49.208;8.806;2024-03-29T10:27:41;2.50;;;2.30;;
2049;SDS011;8478;49.208;8.806;2024-03-29T10:30:07;2.43;;;2.23;;
2049;SDS011;8478;49.208;8.806;2024-03-29T10:32:37;2.50;;;2.30;;
2049;SDS011;8478;49.208;8.806;2024-03-29T10:35:05;2.50;;;2.30;;
2049;SDS011;8478;49.208;8.806;2024-03-29T10:37:31;2.50;;;2.20;;
2049;SDS011;8478;49.208;8.806;2024-03-29T10:40:00;2.40;;;2.20;;
2049;SDS011;8478;49.208;8.806;2024-03-29T10:42:28;2.57;;;2.37;;
2049;SDS011;8478;49.208;8.806;2024-03-29T10:44:54;2.70;;;2.33;;
2049;SDS011;8478;49.208;8.806;2024-03-29T10:47:21;3.07;;;2.77;;
2049;SDS011;8478;49.208;8.806;2024-03-29T10:49:49;3.13;;;2.83;;
2049;SDS011;8478;49.208;8.806;2024-03-29T10:52:16;2.73;;;2.53;;
2049;SDS011;8478;49.208;8.806;2024-03-29T10:54:45;3.27;;;3.00;;
2049;SDS011;8478;49.208;8.806;2024-03-29T10:57:16;2.97;;;2.77;;
2049;SDS011;8478;49.208;8.806;2024-03-29T11:02:51;3.30;;;2.90;;
2049;SDS011;8478;49.208;8.806;2024-03-29T11:05:28;3.20;;;3.00;;
2049;SDS011;8478;49.208;8.806;2024-03-29T11:07:56;3.37;;;3.10;;
2049;SDS011;8478;49.208;8.806;2024-03-29T11:10:28;3.20;;;3.00;;
2049;SDS011;8478;49.208;8.806;2024-03-29T11:13:00;3.20;;;2.90;;
2049;SDS011;8478;49.208;8.806;2024-03-29T11:15:45;3.67;;;3.37;;
2049;SDS011;8478;49.208;8.806;2024-03-29T11:18:13;3.17;;;2.97;;
2049;SDS011;8478;49.208;8.806;2024-03-29T11:20:41;3.30;;;3.10;;
2049;SDS011;8478;49.208;8.806;2024-03-29T11:23:12;3.27;;;3.07;;
2049;SDS011;8478;49.208;8.806;2024-03-29T11:28:06;3.47;;;3.27;;
2049;SDS011;8478;49.208;8.806;2024-03-29T11:30:39;3.30;;;2.80;;
2049;SDS011;8478;49.208;8.806;2024-03-29T11:33:06;3.23;;;2.93;;
2049;SDS011;8478;49.208;8.806;2024-03-29T11:35:31;3.17;;;2.97;;
2049;SDS011;8478;49.208;8.806;2024-03-29T11:38:01;4.33;;;3.00;;
2049;SDS011;8478;49.208;8.806;2024-03-29T11:40:30;3.10;;;2.90;;
2049;SDS011;8478;49.208;8.806;2024-03-29T11:42:55;2.60;;;2.40;;
2049;SDS011;8478;49.208;8.806;2024-03-29T11:45:23;2.90;;;2.70;;
2049;SDS011;8478;49.208;8.806;2024-03-29T11:47:55;3.20;;;3.00;;
2049;SDS011;8478;49.208;8.806;2024-03-29T11:50:26;3.07;;;2.87;;
2049;SDS011;8478;49.208;8.806;2024-03-29T11:52:52;3.00;;;2.80;;
2049;SDS011;8478;49.208;8.806;2024-03-29T11:55:17;2.80;;;2.60;;
2049;SDS011;8478;49.208;8.806;2024-03-29T11:57:43;3.10;;;2.90;;
2049;SDS011;8478;49.208;8.806;2024-03-29T12:00:09;3.87;;;3.20;;
2049;SDS011;8478;49.208;8.806;2024-03-29T12:02:35;2.90;;;2.70;;
2049;SDS011;8478;49.208;8.806;2024-03-29T12:05:05;2.90;;;2.70;;
2049;SDS011;8478;49.208;8.806;2024-03-29T12:07:33;2.80;;;2.57;;
2049;SDS011;8478;49.208;8.806;2024-03-29T12:09:59;3.13;;;2.63;;
2049;SDS011;8478;49.208;8.806;2024-03-29T12:12:24;3.23;;;3.03;;
2049;SDS011;8478;49.208;8.806;2024-03-29T12:14:50;2.70;;;2.50;;
2049;SDS011;8478;49.208;8.806;2024-03-29T12:17:15;2.80;;;2.60;;
2049;SDS011;8478;49.208;8.806;2024-03-29T12:19:41;3.30;;;2.60;;
2049;SDS011;8478;49.208;8.806;2024-03-29T12:22:08;3.00;;;2.63;;
2049;SDS011;8478;49.208;8.806;2024-03-29T12:24:34;3.10;;;2.90;;
2049;SDS011;8478;49.208;8.806;2024-03-29T12:27:00;3.00;;;2.80;;
2049;SDS011;8478;49.208;8.806;2024-03-29T12:29:26;3.07;;;2.87;;
2049;SDS011;8478;49.208;8.806;2024-03-29T12:31:56;3.07;;;2.87;;
2049;SDS011;8478;49.208;8.806;2024-03-29T12:34:23;3.03;;;2.83;;
2049;SDS011;8478;49.208;8.806;2024-03-29T12:36:48;3.30;;;3.10;;
2049;SDS011;8478;49.208;8.806;2024-03-29T12:39:14;2.90;;;2.70;;
2049;SDS011;8478;49.208;8.806;2024-03-29T12:41:41;3.17;;;2.97;;
2049;SDS011;8478;49.208;8.806;2024-03-29T12:44:09;3.43;;;3.23;;
2049;SDS011;8478;49.208;8.806;2024-03-29T12:46:35;3.33;;;3.03;;
2049;SDS011;8478;49.208;8.806;2024-03-29T12:49:02;3.70;;;3.40;;
2049;SDS011;8478;49.208;8.806;2024-03-29T12:51:28;3.70;;;3.40;;
2049;SDS011;8478;49.208;8.806;2024-03-29T12:54:01;3.60;;;3.27;;
2049;SDS011;8478;49.208;8.806;2024-03-29T12:56:28;3.60;;;3.30;;
2049;SDS011;8478;49.208;8.806;2024-03-29T12:58:54;3.07;;;2.87;;
2049;SDS011;8478;49.208;8.806;2024-03-29T13:01:20;3.47;;;3.27;;
2049;SDS011;8478;49.208;8.806;2024-03-29T13:03:46;3.23;;;2.93;;
2049;SDS011;8478;49.208;8.806;2024-03-29T13:06:11;3.23;;;2.93;;
2049;SDS011;8478;49.208;8.806;2024-03-29T13:08:37;3.37;;;3.10;;
2049;SDS011;8478;49.208;8.806;2024-03-29T13:11:03;2.60;;;2.40;;
2049;SDS011;8478;49.208;8.806;2024-03-29T13:13:29;3.17;;;2.87;;
2049;SDS011;8478;49.208;8.806;2024-03-29T13:15:54;3.20;;;2.90;;
2049;SDS011;8478;49.208;8.806;2024-03-29T13:18:20;2.70;;;2.50;;
2049;SDS011;8478;49.208;8.806;2024-03-29T13:20:46;3.10;;;2.90;;
2049;SDS011;8478;49.208;8.806;2024-03-29T13:23:11;2.70;;;2.50;;
2049;SDS011;8478;49.208;8.806;2024-03-29T13:25:37;2.80;;;2.60;;
2049;SDS011;8478;49.208;8.806;2024-03-29T13:28:04;2.80;;;2.60;;
2049;SDS011;8478;49.208;8.806;2024-03-29T13:30:32;2.50;;;2.20;;
2049;SDS011;8478;49.208;8.806;2024-03-29T13:32:57;2.70;;;2.50;;
2049;SDS011;8478;49.208;8.806;2024-03-29T13:35:23;3.13;;;2.83;;
2049;SDS011;8478;49.208;8.806;2024-03-29T13:37:49;2.43;;;2.23;;
2049;SDS011;8478;49.208;8.806;2024-03-29T13:40:17;2.70;;;2.50;;
2049;SDS011;8478;49.208;8.806;2024-03-29T13:42:43;2.77;;;2.57;;
2049;SDS011;8478;49.208;8.806;2024-03-29T13:45:09;3.27;;;2.83;;
2049;SDS011;8478;49.208;8.806;2024-03-29T13:47:36;2.93;;;2.60;;
2049;SDS011;8478;49.208;8.806;2024-03-29T13:50:03;3.03;;;2.83;;
2049;SDS011;8478;49.208;8.806;2024-03-29T13:52:29;2.60;;;2.40;;
2049;SDS011;8478;49.208;8.806;2024-03-29T13:54:55;2.67;;;2.47;;
2049;SDS011;8478;49.208;8.806;2024-03-29T13:57:21;2.70;;;2.47;;
2049;SDS011;8478;49.208;8.806;2024-03-29T13:59:47;2.60;;;2.40;;
2049;SDS011;8478;49.208;8.806;2024-03-29T14:02:13;2.53;;;2.33;;
2049;SDS011;8478;49.208;8.806;2024-03-29T14:04:43;2.67;;;2.47;;
2049;SDS011;8478;49.208;8.806;2024-03-29T14:07:09;2.93;;;2.73;;
2049;SDS011;8478;49.208;8.806;2024-03-29T14:09:42;2.77;;;2.57;;
2049;SDS011;8478;49.208;8.806;2024-03-29T14:12:11;2.90;;;2.67;;
2049;SDS011;8478;49.208;8.806;2024-03-29T14:14:38;2.70;;;2.50;;
2049;SDS011;8478;49.208;8.806;2024-03-29T14:17:04;2.90;;;2.70;;
2049;SDS011;8478;49.208;8.806;2024-03-29T14:19:32;2.57;;;2.37;;
2049;SDS011;8478;49.208;8.806;2024-03-29T14:21:59;2.40;;;2.20;;
2049;SDS011;8478;49.208;8.806;2024-03-29T14:24:25;4.60;;;2.43;;
2049;SDS011;8478;49.208;8.806;2024-03-29T14:26:52;2.40;;;2.20;;
2049;SDS011;8478;49.208;8.806;2024-03-29T14:29:18;2.70;;;2.50;;
2049;SDS011;8478;49.208;8.806;2024-03-29T14:31:46;3.07;;;2.80;;
2049;SDS011;8478;49.208;8.806;2024-03-29T14:34:16;2.50;;;2.30;;
2049;SDS011;8478;49.208;8.806;2024-03-29T14:36:42;1.90;;;1.80;;
2049;SDS011;8478;49.208;8.806;2024-03-29T14:39:09;2.30;;;2.10;;
2049;SDS011;8478;49.208;8.806;2024-03-29T14:41:37;2.40;;;2.20;;
2049;SDS011;8478;49.208;8.806;2024-03-29T14:44:04;2.30;;;2.10;;
2049;SDS011;8478;49.208;8.806;2024-03-29T14:46:33;2.40;;;2.20;;
2049;SDS011;8478;49.208;8.806;2024-03-29T14:49:00;2.40;;;2.30;;
2049;SDS011;8478;49.208;8.806;2024-03-29T14:51:32;2.83;;;2.50;;
2049;SDS011;8478;49.208;8.806;2024-03-29T14:53:58;2.73;;;2.57;;
2049;SDS011;8478;49.208;8.806;2024-03-29T14:56:24;2.73;;;2.53;;
2049;SDS011;8478;49.208;8.806;2024-03-29T14:58:50;2.60;;;2.40;;
2049;SDS011;8478;49.208;8.806;2024-03-29T15:01:16;3.00;;;2.80;;
2049;SDS011;8478;49.208;8.806;2024-03-29T15:03:42;2.97;;;2.77;;
2049;SDS011;8478;49.208;8.806;2024-03-29T15:06:07;2.70;;;2.50;;
2049;SDS011;8478;49.208;8.806;2024-03-29T15:08:33;2.90;;;2.67;;
2049;SDS011;8478;49.208;8.806;2024-03-29T15:11:02;2.80;;;2.60;;
2049;SDS011;8478;49.208;8.806;2024-03-29T15:13:29;2.60;;;2.40;;
2049;SDS011;8478;49.208;8.806;2024-03-29T15:15:55;2.77;;;2.57;;
2049;SDS011;8478;49.208;8.806;2024-03-29T15:18:21;3.83;;;2.60;;